sensor_id;sensor_type;location;lat;lon;timestamp;P1;durP1;ratioP1;P2;durP2;ratioP2
14048;SDS011;7099;53.922;10.728;2023-04-03T00:03:30;8.60;;;2.10;;
14048;SDS011;7099;53.922;10.728;2023-04-03T00:07:36;4.50;;;1.77;;
14048;SDS011;7099;53.922;10.728;2023-04-03T00:11:41;6.93;;;2.67;;
14048;SDS011;7099;53.922;10.728;2023-04-03T00:15:47;9.60;;;2.63;;
14048;SDS011;7099;53.922;10.728;2023-04-03T00:19:52;5.73;;;2.70;;
14048;SDS011;7099;53.922;10.728;2023-04-03T00:23:58;8.53;;;2.00;;
14048;SDS011;7099;53.922;10.728;2023-04-03T00:28:04;2.83;;;1.63;;
14048;SDS011;7099;53.922;10.728;2023-04-03T00:32:09;2.70;;;1.63;;
14048;SDS011;7099;53.922;10.728;2023-04-03T00:36:15;7.50;;;2.20;;
14048;SDS011;7099;53.922;10.728;2023-04-03T00:40:22;1.40;;;1.30;;
14048;SDS011;7099;53.922;10.728;2023-04-03T00:52:50;5.03;;;1.63;;
14048;SDS011;7099;53.922;10.728;2023-04-03T00:56:56;6.53;;;1.60;;
14048;SDS011;7099;53.922;10.728;2023-04-03T01:01:03;3.23;;;1.57;;
14048;SDS011;7099;53.922;10.728;2023-04-03T01:05:15;2.00;;;1.70;;
14048;SDS011;7099;53.922;10.728;2023-04-03T01:09:22;2.60;;;1.47;;
14048;SDS011;7099;53.922;10.728;2023-04-03T01:13:29;9.13;;;2.03;;
14048;SDS011;7099;53.922;10.728;2023-04-03T01:17:38;4.83;;;1.63;;
14048;SDS011;7099;53.922;10.728;2023-04-03T01:22:26;6.23;;;1.77;;
14048;SDS011;7099;53.922;10.728;2023-04-03T01:26:35;4.10;;;1.70;;
14048;SDS011;7099;53.922;10.728;2023-04-03T01:35:30;3.53;;;2.20;;
14048;SDS011;7099;53.922;10.728;2023-04-03T01:39:35;3.33;;;1.90;;
14048;SDS011;7099;53.922;10.728;2023-04-03T01:43:41;5.67;;;2.13;;
14048;SDS011;7099;53.922;10.728;2023-04-03T01:47:47;7.83;;;1.80;;
14048;SDS011;7099;53.922;10.728;2023-04-03T01:51:54;6.17;;;2.60;;
14048;SDS011;7099;53.922;10.728;2023-04-03T01:56:00;7.37;;;1.53;;
14048;SDS011;7099;53.922;10.728;2023-04-03T02:00:05;5.70;;;1.90;;
14048;SDS011;7099;53.922;10.728;2023-04-03T02:04:13;3.60;;;1.40;;
14048;SDS011;7099;53.922;10.728;2023-04-03T02:08:19;4.00;;;2.30;;
14048;SDS011;7099;53.922;10.728;2023-04-03T02:12:25;5.60;;;2.20;;
14048;SDS011;7099;53.922;10.728;2023-04-03T02:16:31;8.97;;;2.00;;
14048;SDS011;7099;53.922;10.728;2023-04-03T02:20:37;7.17;;;1.93;;
14048;SDS011;7099;53.922;10.728;2023-04-03T02:24:43;1.60;;;1.50;;
14048;SDS011;7099;53.922;10.728;2023-04-03T02:28:49;5.60;;;2.00;;
14048;SDS011;7099;53.922;10.728;2023-04-03T02:32:55;3.13;;;1.53;;
14048;SDS011;7099;53.922;10.728;2023-04-03T02:37:00;2.83;;;1.70;;
14048;SDS011;7099;53.922;10.728;2023-04-03T02:41:08;4.30;;;1.67;;
14048;SDS011;7099;53.922;10.728;2023-04-03T02:45:15;5.60;;;1.70;;
14048;SDS011;7099;53.922;10.728;2023-04-03T02:49:21;4.77;;;1.63;;
14048;SDS011;7099;53.922;10.728;2023-04-03T02:53:27;2.00;;;1.47;;
14048;SDS011;7099;53.922;10.728;2023-04-03T02:57:32;3.83;;;1.70;;
14048;SDS011;7099;53.922;10.728;2023-04-03T03:01:38;6.13;;;1.40;;
14048;SDS011;7099;53.922;10.728;2023-04-03T03:05:44;1.30;;;1.20;;
14048;SDS011;7099;53.922;10.728;2023-04-03T03:09:49;4.13;;;2.03;;
14048;SDS011;7099;53.922;10.728;2023-04-03T03:13:56;9.77;;;1.87;;
14048;SDS011;7099;53.922;10.728;2023-04-03T03:18:02;3.63;;;1.83;;
14048;SDS011;7099;53.922;10.728;2023-04-03T03:22:08;5.30;;;1.70;;
14048;SDS011;7099;53.922;10.728;2023-04-03T03:26:13;4.07;;;1.43;;
14048;SDS011;7099;53.922;10.728;2023-04-03T03:30:19;1.83;;;1.73;;
14048;SDS011;7099;53.922;10.728;2023-04-03T03:34:24;4.00;;;1.80;;
14048;SDS011;7099;53.922;10.728;2023-04-03T03:38:30;1.50;;;1.40;;
14048;SDS011;7099;53.922;10.728;2023-04-03T03:42:35;2.70;;;1.60;;
14048;SDS011;7099;53.922;10.728;2023-04-03T03:46:41;5.30;;;1.73;;
14048;SDS011;7099;53.922;10.728;2023-04-03T03:50:47;2.80;;;1.50;;
14048;SDS011;7099;53.922;10.728;2023-04-03T03:54:53;7.47;;;1.97;;
14048;SDS011;7099;53.922;10.728;2023-04-03T03:58:59;5.47;;;1.43;;
14048;SDS011;7099;53.922;10.728;2023-04-03T04:03:05;1.77;;;1.40;;
14048;SDS011;7099;53.922;10.728;2023-04-03T04:07:10;6.23;;;2.00;;
14048;SDS011;7099;53.922;10.728;2023-04-03T04:11:16;5.30;;;1.60;;
14048;SDS011;7099;53.922;10.728;2023-04-03T04:15:22;4.20;;;1.70;;
14048;SDS011;7099;53.922;10.728;2023-04-03T04:19:28;2.10;;;1.60;;
14048;SDS011;7099;53.922;10.728;2023-04-03T04:23:34;1.43;;;1.33;;
14048;SDS011;7099;53.922;10.728;2023-04-03T04:27:39;4.50;;;1.60;;
14048;SDS011;7099;53.922;10.728;2023-04-03T04:31:45;1.30;;;1.20;;
14048;SDS011;7099;53.922;10.728;2023-04-03T04:35:51;1.80;;;1.60;;
14048;SDS011;7099;53.922;10.728;2023-04-03T04:39:56;1.80;;;1.40;;
14048;SDS011;7099;53.922;10.728;2023-04-03T04:44:02;3.63;;;1.50;;
14048;SDS011;7099;53.922;10.728;2023-04-03T04:48:08;6.77;;;1.57;;
14048;SDS011;7099;53.922;10.728;2023-04-03T04:52:13;1.53;;;1.30;;
14048;SDS011;7099;53.922;10.728;2023-04-03T04:56:19;3.30;;;1.40;;
14048;SDS011;7099;53.922;10.728;2023-04-03T05:00:25;2.70;;;1.90;;
14048;SDS011;7099;53.922;10.728;2023-04-03T05:04:31;2.70;;;1.40;;
14048;SDS011;7099;53.922;10.728;2023-04-03T05:08:38;5.03;;;1.57;;
14048;SDS011;7099;53.922;10.728;2023-04-03T05:12:43;3.23;;;1.60;;
14048;SDS011;7099;53.922;10.728;2023-04-03T05:16:49;2.63;;;1.53;;
14048;SDS011;7099;53.922;10.728;2023-04-03T05:20:58;2.00;;;1.53;;
14048;SDS011;7099;53.922;10.728;2023-04-03T05:25:04;5.70;;;1.73;;
14048;SDS011;7099;53.922;10.728;2023-04-03T05:29:10;7.60;;;2.10;;
14048;SDS011;7099;53.922;10.728;2023-04-03T05:33:16;5.53;;;2.27;;
14048;SDS011;7099;53.922;10.728;2023-04-03T05:37:22;2.97;;;1.50;;
14048;SDS011;7099;53.922;10.728;2023-04-03T05:41:28;1.60;;;1.50;;
14048;SDS011;7099;53.922;10.728;2023-04-03T05:45:34;5.50;;;2.00;;
14048;SDS011;7099;53.922;10.728;2023-04-03T05:49:39;2.10;;;1.67;;
14048;SDS011;7099;53.922;10.728;2023-04-03T05:53:45;4.93;;;2.30;;
14048;SDS011;7099;53.922;10.728;2023-04-03T05:57:52;4.13;;;2.00;;
14048;SDS011;7099;53.922;10.728;2023-04-03T06:01:58;3.73;;;1.87;;
14048;SDS011;7099;53.922;10.728;2023-04-03T06:06:03;5.93;;;2.17;;
14048;SDS011;7099;53.922;10.728;2023-04-03T06:10:11;4.20;;;2.40;;
14048;SDS011;7099;53.922;10.728;2023-04-03T06:14:18;6.43;;;2.03;;
14048;SDS011;7099;53.922;10.728;2023-04-03T06:18:24;8.80;;;2.50;;
14048;SDS011;7099;53.922;10.728;2023-04-03T06:22:29;14.53;;;2.80;;
14048;SDS011;7099;53.922;10.728;2023-04-03T06:26:35;7.53;;;2.53;;
14048;SDS011;7099;53.922;10.728;2023-04-03T06:30:41;7.20;;;2.63;;
14048;SDS011;7099;53.922;10.728;2023-04-03T06:34:46;6.13;;;2.20;;
14048;SDS011;7099;53.922;10.728;2023-04-03T06:38:52;5.50;;;2.83;;
14048;SDS011;7099;53.922;10.728;2023-04-03T06:42:57;5.40;;;2.70;;
14048;SDS011;7099;53.922;10.728;2023-04-03T06:47:03;7.43;;;2.57;;
14048;SDS011;7099;53.922;10.728;2023-04-03T06:51:13;5.00;;;2.10;;
14048;SDS011;7099;53.922;10.728;2023-04-03T06:55:29;3.47;;;1.63;;
14048;SDS011;7099;53.922;10.728;2023-04-03T06:59:35;2.87;;;1.73;;
14048;SDS011;7099;53.922;10.728;2023-04-03T07:03:41;3.43;;;1.70;;
14048;SDS011;7099;53.922;10.728;2023-04-03T07:16:00;3.57;;;1.73;;
14048;SDS011;7099;53.922;10.728;2023-04-03T07:20:08;1.43;;;1.07;;
14048;SDS011;7099;53.922;10.728;2023-04-03T07:48:50;2.10;;;1.10;;
14048;SDS011;7099;53.922;10.728;2023-04-03T08:17:29;3.53;;;1.80;;
14048;SDS011;7099;53.922;10.728;2023-04-03T08:25:41;3.40;;;1.10;;
14048;SDS011;7099;53.922;10.728;2023-04-03T08:29:47;1.37;;;1.20;;
14048;SDS011;7099;53.922;10.728;2023-04-03T08:33:53;4.30;;;1.60;;
14048;SDS011;7099;53.922;10.728;2023-04-03T08:37:58;1.77;;;1.00;;
14048;SDS011;7099;53.922;10.728;2023-04-03T08:42:05;2.10;;;1.00;;
14048;SDS011;7099;53.922;10.728;2023-04-03T08:46:26;2.17;;;1.40;;
14048;SDS011;7099;53.922;10.728;2023-04-03T08:50:55;2.17;;;1.37;;
14048;SDS011;7099;53.922;10.728;2023-04-03T08:55:20;4.13;;;1.50;;
14048;SDS011;7099;53.922;10.728;2023-04-03T08:59:28;2.80;;;1.00;;
14048;SDS011;7099;53.922;10.728;2023-04-03T09:03:38;0.90;;;0.90;;
14048;SDS011;7099;53.922;10.728;2023-04-03T09:07:47;4.83;;;1.40;;
14048;SDS011;7099;53.922;10.728;2023-04-03T09:21:13;8.00;;;1.30;;
14048;SDS011;7099;53.922;10.728;2023-04-03T09:25:30;1.90;;;1.20;;
14048;SDS011;7099;53.922;10.728;2023-04-03T09:29:40;1.53;;;1.10;;
14048;SDS011;7099;53.922;10.728;2023-04-03T09:33:55;1.03;;;0.97;;
14048;SDS011;7099;53.922;10.728;2023-04-03T09:42:24;2.70;;;1.20;;
14048;SDS011;7099;53.922;10.728;2023-04-03T09:46:31;5.63;;;1.20;;
14048;SDS011;7099;53.922;10.728;2023-04-03T09:50:52;4.10;;;1.20;;
14048;SDS011;7099;53.922;10.728;2023-04-03T09:55:41;3.57;;;0.90;;
14048;SDS011;7099;53.922;10.728;2023-04-03T09:59:34;3.30;;;0.97;;
14048;SDS011;7099;53.922;10.728;2023-04-03T10:04:11;3.20;;;1.33;;
14048;SDS011;7099;53.922;10.728;2023-04-03T10:08:22;5.83;;;1.20;;
14048;SDS011;7099;53.922;10.728;2023-04-03T10:12:32;3.20;;;1.20;;
14048;SDS011;7099;53.922;10.728;2023-04-03T10:16:39;2.30;;;0.93;;
14048;SDS011;7099;53.922;10.728;2023-04-03T10:20:54;3.43;;;0.90;;
14048;SDS011;7099;53.922;10.728;2023-04-03T10:25:12;3.03;;;0.90;;
14048;SDS011;7099;53.922;10.728;2023-04-03T10:29:42;2.27;;;1.10;;
14048;SDS011;7099;53.922;10.728;2023-04-03T10:34:03;1.57;;;1.03;;
14048;SDS011;7099;53.922;10.728;2023-04-03T10:47:21;1.53;;;0.87;;
14048;SDS011;7099;53.922;10.728;2023-04-03T10:52:15;3.53;;;2.40;;
14048;SDS011;7099;53.922;10.728;2023-04-03T10:56:38;1.33;;;0.97;;
14048;SDS011;7099;53.922;10.728;2023-04-03T11:00:48;2.50;;;1.00;;
14048;SDS011;7099;53.922;10.728;2023-04-03T11:05:08;7.30;;;1.77;;
14048;SDS011;7099;53.922;10.728;2023-04-03T11:26:35;2.53;;;1.10;;
14048;SDS011;7099;53.922;10.728;2023-04-03T11:30:50;2.50;;;1.53;;
14048;SDS011;7099;53.922;10.728;2023-04-03T12:51:57;1.43;;;0.93;;
14048;SDS011;7099;53.922;10.728;2023-04-03T13:00:37;2.37;;;0.90;;
14048;SDS011;7099;53.922;10.728;2023-04-03T13:04:44;5.70;;;1.40;;
14048;SDS011;7099;53.922;10.728;2023-04-03T13:08:57;1.70;;;1.00;;
14048;SDS011;7099;53.922;10.728;2023-04-03T13:13:09;5.33;;;1.20;;
14048;SDS011;7099;53.922;10.728;2023-04-03T13:17:15;4.93;;;1.33;;
14048;SDS011;7099;53.922;10.728;2023-04-03T13:21:23;2.10;;;1.17;;
14048;SDS011;7099;53.922;10.728;2023-04-03T13:25:33;3.37;;;1.50;;
14048;SDS011;7099;53.922;10.728;2023-04-03T13:29:42;5.37;;;1.37;;
14048;SDS011;7099;53.922;10.728;2023-04-03T13:33:55;3.27;;;1.43;;
14048;SDS011;7099;53.922;10.728;2023-04-03T13:42:26;4.90;;;1.60;;
14048;SDS011;7099;53.922;10.728;2023-04-03T13:46:35;4.50;;;1.40;;
14048;SDS011;7099;53.922;10.728;2023-04-03T13:51:42;2.07;;;1.27;;
14048;SDS011;7099;53.922;10.728;2023-04-03T13:55:23;3.60;;;1.27;;
14048;SDS011;7099;53.922;10.728;2023-04-03T14:08:49;2.10;;;1.03;;
14048;SDS011;7099;53.922;10.728;2023-04-03T14:12:55;2.93;;;1.20;;
14048;SDS011;7099;53.922;10.728;2023-04-03T14:17:02;3.63;;;1.13;;
14048;SDS011;7099;53.922;10.728;2023-04-03T14:21:29;3.90;;;1.10;;
14048;SDS011;7099;53.922;10.728;2023-04-03T14:25:34;3.97;;;1.20;;
14048;SDS011;7099;53.922;10.728;2023-04-03T14:29:40;1.33;;;0.97;;
14048;SDS011;7099;53.922;10.728;2023-04-03T14:33:50;1.50;;;1.00;;
14048;SDS011;7099;53.922;10.728;2023-04-03T14:37:55;1.93;;;1.00;;
14048;SDS011;7099;53.922;10.728;2023-04-03T14:42:01;4.30;;;1.20;;
14048;SDS011;7099;53.922;10.728;2023-04-03T14:51:01;4.30;;;1.10;;
14048;SDS011;7099;53.922;10.728;2023-04-03T14:55:11;4.13;;;1.20;;
14048;SDS011;7099;53.922;10.728;2023-04-03T14:59:19;5.53;;;1.50;;
14048;SDS011;7099;53.922;10.728;2023-04-03T15:03:26;6.10;;;1.20;;
14048;SDS011;7099;53.922;10.728;2023-04-03T15:07:33;4.63;;;1.50;;
14048;SDS011;7099;53.922;10.728;2023-04-03T15:11:42;2.03;;;1.20;;
14048;SDS011;7099;53.922;10.728;2023-04-03T15:15:48;2.80;;;1.33;;
14048;SDS011;7099;53.922;10.728;2023-04-03T15:19:55;2.90;;;1.23;;
14048;SDS011;7099;53.922;10.728;2023-04-03T15:24:01;2.67;;;1.37;;
14048;SDS011;7099;53.922;10.728;2023-04-03T15:28:08;1.80;;;0.93;;
14048;SDS011;7099;53.922;10.728;2023-04-03T15:32:24;6.10;;;1.70;;
14048;SDS011;7099;53.922;10.728;2023-04-03T15:36:29;2.67;;;1.40;;
14048;SDS011;7099;53.922;10.728;2023-04-03T15:40:38;5.30;;;1.50;;
14048;SDS011;7099;53.922;10.728;2023-04-03T15:44:44;2.87;;;1.30;;
14048;SDS011;7099;53.922;10.728;2023-04-03T15:48:50;2.67;;;1.70;;
14048;SDS011;7099;53.922;10.728;2023-04-03T15:52:55;4.90;;;1.50;;
14048;SDS011;7099;53.922;10.728;2023-04-03T15:57:02;1.60;;;1.30;;
14048;SDS011;7099;53.922;10.728;2023-04-03T16:01:09;2.67;;;1.30;;
14048;SDS011;7099;53.922;10.728;2023-04-03T16:05:16;4.70;;;1.63;;
14048;SDS011;7099;53.922;10.728;2023-04-03T16:09:22;2.10;;;1.20;;
14048;SDS011;7099;53.922;10.728;2023-04-03T16:13:27;4.10;;;1.47;;
14048;SDS011;7099;53.922;10.728;2023-04-03T16:17:34;1.73;;;1.20;;
14048;SDS011;7099;53.922;10.728;2023-04-03T16:21:42;1.93;;;1.30;;
14048;SDS011;7099;53.922;10.728;2023-04-03T16:25:47;3.00;;;1.20;;
14048;SDS011;7099;53.922;10.728;2023-04-03T16:29:54;2.00;;;1.40;;
14048;SDS011;7099;53.922;10.728;2023-04-03T16:34:00;2.57;;;1.60;;
14048;SDS011;7099;53.922;10.728;2023-04-03T16:38:06;3.63;;;1.23;;
14048;SDS011;7099;53.922;10.728;2023-04-03T16:42:11;3.37;;;1.43;;
14048;SDS011;7099;53.922;10.728;2023-04-03T16:46:18;2.77;;;1.93;;
14048;SDS011;7099;53.922;10.728;2023-04-03T16:50:24;8.23;;;1.50;;
14048;SDS011;7099;53.922;10.728;2023-04-03T16:54:30;4.27;;;1.50;;
14048;SDS011;7099;53.922;10.728;2023-04-03T16:58:36;3.10;;;1.47;;
14048;SDS011;7099;53.922;10.728;2023-04-03T17:02:42;3.00;;;1.70;;
14048;SDS011;7099;53.922;10.728;2023-04-03T17:06:47;9.27;;;2.17;;
14048;SDS011;7099;53.922;10.728;2023-04-03T17:10:53;5.00;;;1.80;;
14048;SDS011;7099;53.922;10.728;2023-04-03T17:14:59;1.23;;;1.13;;
14048;SDS011;7099;53.922;10.728;2023-04-03T17:19:05;3.03;;;1.20;;
14048;SDS011;7099;53.922;10.728;2023-04-03T17:23:11;3.43;;;1.67;;
14048;SDS011;7099;53.922;10.728;2023-04-03T17:27:16;2.37;;;1.70;;
14048;SDS011;7099;53.922;10.728;2023-04-03T17:31:22;2.73;;;1.30;;
14048;SDS011;7099;53.922;10.728;2023-04-03T17:35:27;1.63;;;0.97;;
14048;SDS011;7099;53.922;10.728;2023-04-03T17:39:34;2.87;;;1.20;;
14048;SDS011;7099;53.922;10.728;2023-04-03T17:43:40;1.83;;;1.17;;
14048;SDS011;7099;53.922;10.728;2023-04-03T17:47:45;3.40;;;1.43;;
14048;SDS011;7099;53.922;10.728;2023-04-03T17:51:51;4.13;;;1.50;;
14048;SDS011;7099;53.922;10.728;2023-04-03T17:55:57;5.97;;;1.90;;
14048;SDS011;7099;53.922;10.728;2023-04-03T18:00:03;1.77;;;1.40;;
14048;SDS011;7099;53.922;10.728;2023-04-03T18:04:10;5.23;;;1.40;;
14048;SDS011;7099;53.922;10.728;2023-04-03T18:08:16;3.17;;;1.40;;
14048;SDS011;7099;53.922;10.728;2023-04-03T18:12:21;3.50;;;1.17;;
14048;SDS011;7099;53.922;10.728;2023-04-03T18:16:28;2.63;;;1.40;;
14048;SDS011;7099;53.922;10.728;2023-04-03T18:20:34;2.60;;;1.20;;
14048;SDS011;7099;53.922;10.728;2023-04-03T18:24:40;3.23;;;1.70;;
14048;SDS011;7099;53.922;10.728;2023-04-03T18:28:48;5.63;;;1.60;;
14048;SDS011;7099;53.922;10.728;2023-04-03T18:32:59;2.30;;;1.00;;
14048;SDS011;7099;53.922;10.728;2023-04-03T18:37:04;1.60;;;1.20;;
14048;SDS011;7099;53.922;10.728;2023-04-03T18:41:10;2.47;;;1.30;;
14048;SDS011;7099;53.922;10.728;2023-04-03T18:45:16;4.60;;;1.10;;
14048;SDS011;7099;53.922;10.728;2023-04-03T18:49:27;3.33;;;1.60;;
14048;SDS011;7099;53.922;10.728;2023-04-03T18:53:35;2.33;;;1.30;;
14048;SDS011;7099;53.922;10.728;2023-04-03T18:57:40;5.20;;;1.47;;
14048;SDS011;7099;53.922;10.728;2023-04-03T19:01:46;6.73;;;1.10;;
14048;SDS011;7099;53.922;10.728;2023-04-03T19:05:51;3.43;;;1.23;;
14048;SDS011;7099;53.922;10.728;2023-04-03T19:09:57;3.53;;;1.20;;
14048;SDS011;7099;53.922;10.728;2023-04-03T19:14:03;1.53;;;1.00;;
14048;SDS011;7099;53.922;10.728;2023-04-03T19:18:20;7.43;;;1.30;;
14048;SDS011;7099;53.922;10.728;2023-04-03T19:22:25;1.43;;;1.17;;
14048;SDS011;7099;53.922;10.728;2023-04-03T19:26:31;5.30;;;1.30;;
14048;SDS011;7099;53.922;10.728;2023-04-03T19:30:37;2.30;;;1.27;;
14048;SDS011;7099;53.922;10.728;2023-04-03T19:34:43;3.10;;;1.47;;
14048;SDS011;7099;53.922;10.728;2023-04-03T19:38:48;2.07;;;1.30;;
14048;SDS011;7099;53.922;10.728;2023-04-03T19:42:54;1.33;;;1.23;;
14048;SDS011;7099;53.922;10.728;2023-04-03T19:47:00;5.00;;;1.33;;
14048;SDS011;7099;53.922;10.728;2023-04-03T19:51:07;3.13;;;1.20;;
14048;SDS011;7099;53.922;10.728;2023-04-03T19:55:12;1.60;;;1.30;;
14048;SDS011;7099;53.922;10.728;2023-04-03T19:59:18;2.50;;;1.40;;
14048;SDS011;7099;53.922;10.728;2023-04-03T20:03:24;4.63;;;1.67;;
14048;SDS011;7099;53.922;10.728;2023-04-03T20:07:30;2.53;;;1.13;;
14048;SDS011;7099;53.922;10.728;2023-04-03T20:11:36;4.33;;;1.40;;
14048;SDS011;7099;53.922;10.728;2023-04-03T20:15:44;3.10;;;1.30;;
14048;SDS011;7099;53.922;10.728;2023-04-03T20:19:50;3.45;;;1.40;;
14048;SDS011;7099;53.922;10.728;2023-04-03T20:23:56;2.90;;;1.60;;
14048;SDS011;7099;53.922;10.728;2023-04-03T20:28:03;6.47;;;1.53;;
14048;SDS011;7099;53.922;10.728;2023-04-03T20:32:08;1.30;;;1.17;;
14048;SDS011;7099;53.922;10.728;2023-04-03T20:36:16;3.80;;;1.23;;
14048;SDS011;7099;53.922;10.728;2023-04-03T20:40:24;1.57;;;1.20;;
14048;SDS011;7099;53.922;10.728;2023-04-03T20:44:31;3.10;;;1.60;;
14048;SDS011;7099;53.922;10.728;2023-04-03T20:48:36;5.03;;;2.30;;
14048;SDS011;7099;53.922;10.728;2023-04-03T20:52:43;4.27;;;1.50;;
14048;SDS011;7099;53.922;10.728;2023-04-03T20:56:48;3.70;;;1.43;;
14048;SDS011;7099;53.922;10.728;2023-04-03T21:00:55;3.80;;;1.40;;
14048;SDS011;7099;53.922;10.728;2023-04-03T21:05:01;2.20;;;1.30;;
14048;SDS011;7099;53.922;10.728;2023-04-03T21:19:14;2.40;;;1.57;;
14048;SDS011;7099;53.922;10.728;2023-04-03T21:23:24;1.27;;;1.17;;
14048;SDS011;7099;53.922;10.728;2023-04-03T21:27:32;4.33;;;1.80;;
14048;SDS011;7099;53.922;10.728;2023-04-03T21:31:57;12.30;;;5.50;;
14048;SDS011;7099;53.922;10.728;2023-04-03T21:36:05;7.93;;;4.87;;
14048;SDS011;7099;53.922;10.728;2023-04-03T21:40:12;9.50;;;5.27;;
14048;SDS011;7099;53.922;10.728;2023-04-03T21:44:18;5.17;;;3.47;;
14048;SDS011;7099;53.922;10.728;2023-04-03T21:48:25;6.67;;;3.67;;
14048;SDS011;7099;53.922;10.728;2023-04-03T21:52:34;5.53;;;3.27;;
14048;SDS011;7099;53.922;10.728;2023-04-03T21:56:40;7.63;;;3.63;;
14048;SDS011;7099;53.922;10.728;2023-04-03T22:00:46;10.13;;;3.23;;
14048;SDS011;7099;53.922;10.728;2023-04-03T22:04:51;11.63;;;3.03;;
14048;SDS011;7099;53.922;10.728;2023-04-03T22:08:59;5.40;;;2.40;;
14048;SDS011;7099;53.922;10.728;2023-04-03T22:13:05;5.13;;;3.00;;
14048;SDS011;7099;53.922;10.728;2023-04-03T22:17:11;4.93;;;2.70;;
14048;SDS011;7099;53.922;10.728;2023-04-03T22:21:17;4.93;;;2.40;;
14048;SDS011;7099;53.922;10.728;2023-04-03T22:25:24;1.80;;;1.57;;
14048;SDS011;7099;53.922;10.728;2023-04-03T22:29:29;4.47;;;1.90;;
14048;SDS011;7099;53.922;10.728;2023-04-03T22:33:35;4.43;;;2.10;;
14048;SDS011;7099;53.922;10.728;2023-04-03T22:37:41;3.50;;;2.23;;
14048;SDS011;7099;53.922;10.728;2023-04-03T22:41:47;6.37;;;2.43;;
14048;SDS011;7099;53.922;10.728;2023-04-03T22:45:53;8.87;;;2.10;;
14048;SDS011;7099;53.922;10.728;2023-04-03T22:49:59;4.57;;;2.23;;
14048;SDS011;7099;53.922;10.728;2023-04-03T22:54:05;3.13;;;2.33;;
14048;SDS011;7099;53.922;10.728;2023-04-03T22:58:11;2.83;;;2.37;;
14048;SDS011;7099;53.922;10.728;2023-04-03T23:02:17;4.73;;;2.10;;
14048;SDS011;7099;53.922;10.728;2023-04-03T23:06:22;3.80;;;2.40;;
14048;SDS011;7099;53.922;10.728;2023-04-03T23:10:28;4.80;;;2.50;;
14048;SDS011;7099;53.922;10.728;2023-04-03T23:14:33;4.70;;;2.10;;
14048;SDS011;7099;53.922;10.728;2023-04-03T23:18:39;3.23;;;1.90;;
14048;SDS011;7099;53.922;10.728;2023-04-03T23:22:47;1.63;;;1.50;;
14048;SDS011;7099;53.922;10.728;2023-04-03T23:29:43;2.43;;;1.80;;
14048;SDS011;7099;53.922;10.728;2023-04-03T23:33:49;5.30;;;1.73;;
14048;SDS011;7099;53.922;10.728;2023-04-03T23:37:56;2.30;;;1.70;;
14048;SDS011;7099;53.922;10.728;2023-04-03T23:42:01;3.20;;;1.43;;
14048;SDS011;7099;53.922;10.728;2023-04-03T23:46:09;3.17;;;1.43;;
14048;SDS011;7099;53.922;10.728;2023-04-03T23:50:15;1.80;;;1.50;;
14048;SDS011;7099;53.922;10.728;2023-04-03T23:54:20;1.73;;;1.60;;
14048;SDS011;7099;53.922;10.728;2023-04-03T23:58:26;6.10;;;1.50;;
